sensor_id;sensor_type;location;lat;lon;timestamp;temperature;humidity
33105;DHT22;19476;51.448;6.674;2022-10-23T00:02:08;19.10;58.60
33105;DHT22;19476;51.448;6.674;2022-10-23T00:04:34;19.10;58.60
33105;DHT22;19476;51.448;6.674;2022-10-23T00:07:00;19.10;59.00
33105;DHT22;19476;51.448;6.674;2022-10-23T00:09:26;19.10;58.50
33105;DHT22;19476;51.448;6.674;2022-10-23T00:11:52;19.10;58.50
33105;DHT22;19476;51.448;6.674;2022-10-23T00:14:20;19.10;58.40
33105;DHT22;19476;51.448;6.674;2022-10-23T00:16:47;19.10;58.40
33105;DHT22;19476;51.448;6.674;2022-10-23T00:19:13;19.10;58.40
33105;DHT22;19476;51.448;6.674;2022-10-23T00:21:39;19.10;58.20
33105;DHT22;19476;51.448;6.674;2022-10-23T00:24:06;19.00;58.10
33105;DHT22;19476;51.448;6.674;2022-10-23T00:26:33;19.10;58.20
33105;DHT22;19476;51.448;6.674;2022-10-23T00:28:59;19.10;58.10
33105;DHT22;19476;51.448;6.674;2022-10-23T00:31:25;19.10;58.10
33105;DHT22;19476;51.448;6.674;2022-10-23T00:33:51;19.00;58.60
33105;DHT22;19476;51.448;6.674;2022-10-23T00:36:18;19.00;57.90
33105;DHT22;19476;51.448;6.674;2022-10-23T00:38:45;19.00;57.90
33105;DHT22;19476;51.448;6.674;2022-10-23T00:41:17;19.00;57.90
33105;DHT22;19476;51.448;6.674;2022-10-23T00:46:23;19.00;57.70
33105;DHT22;19476;51.448;6.674;2022-10-23T00:48:48;19.00;57.80
33105;DHT22;19476;51.448;6.674;2022-10-23T00:51:14;18.90;57.70
33105;DHT22;19476;51.448;6.674;2022-10-23T00:53:42;18.90;57.80
33105;DHT22;19476;51.448;6.674;2022-10-23T00:56:09;18.90;58.00
33105;DHT22;19476;51.448;6.674;2022-10-23T00:58:35;18.90;58.00
33105;DHT22;19476;51.448;6.674;2022-10-23T01:01:01;18.90;58.10
33105;DHT22;19476;51.448;6.674;2022-10-23T01:03:27;18.90;58.20
33105;DHT22;19476;51.448;6.674;2022-10-23T01:06:04;18.90;58.40
33105;DHT22;19476;51.448;6.674;2022-10-23T01:08:56;18.90;58.50
33105;DHT22;19476;51.448;6.674;2022-10-23T01:11:57;18.90;58.80
33105;DHT22;19476;51.448;6.674;2022-10-23T01:14:36;18.90;59.10
33105;DHT22;19476;51.448;6.674;2022-10-23T01:28:02;18.80;59.60
33105;DHT22;19476;51.448;6.674;2022-10-23T01:30:29;18.80;59.50
33105;DHT22;19476;51.448;6.674;2022-10-23T01:33:12;18.70;59.40
33105;DHT22;19476;51.448;6.674;2022-10-23T01:35:52;18.70;59.70
33105;DHT22;19476;51.448;6.674;2022-10-23T01:38:28;18.70;60.00
33105;DHT22;19476;51.448;6.674;2022-10-23T01:41:02;18.70;59.70
33105;DHT22;19476;51.448;6.674;2022-10-23T01:43:36;18.70;60.00
33105;DHT22;19476;51.448;6.674;2022-10-23T01:46:07;18.70;60.10
33105;DHT22;19476;51.448;6.674;2022-10-23T01:48:34;18.60;60.00
33105;DHT22;19476;51.448;6.674;2022-10-23T01:51:06;18.60;60.00
33105;DHT22;19476;51.448;6.674;2022-10-23T01:53:36;18.60;60.40
33105;DHT22;19476;51.448;6.674;2022-10-23T01:56:08;18.60;60.40
33105;DHT22;19476;51.448;6.674;2022-10-23T01:58:35;18.60;60.40
33105;DHT22;19476;51.448;6.674;2022-10-23T02:01:03;18.60;60.40
33105;DHT22;19476;51.448;6.674;2022-10-23T02:03:32;18.50;60.50
33105;DHT22;19476;51.448;6.674;2022-10-23T02:06:00;18.50;60.60
33105;DHT22;19476;51.448;6.674;2022-10-23T02:08:26;18.50;60.50
33105;DHT22;19476;51.448;6.674;2022-10-23T02:13:42;18.50;61.00
33105;DHT22;19476;51.448;6.674;2022-10-23T02:21:47;18.50;61.10
33105;DHT22;19476;51.448;6.674;2022-10-23T02:24:17;18.50;61.20
33105;DHT22;19476;51.448;6.674;2022-10-23T02:27:09;18.50;61.00
33105;DHT22;19476;51.448;6.674;2022-10-23T02:29:40;18.40;61.40
33105;DHT22;19476;51.448;6.674;2022-10-23T02:32:09;18.50;61.20
33105;DHT22;19476;51.448;6.674;2022-10-23T02:34:36;18.40;61.00
33105;DHT22;19476;51.448;6.674;2022-10-23T02:37:02;18.40;61.10
33105;DHT22;19476;51.448;6.674;2022-10-23T02:39:28;18.40;61.10
33105;DHT22;19476;51.448;6.674;2022-10-23T02:58:12;18.40;61.40
33105;DHT22;19476;51.448;6.674;2022-10-23T03:00:44;18.40;61.90
33105;DHT22;19476;51.448;6.674;2022-10-23T03:03:18;18.40;61.70
33105;DHT22;19476;51.448;6.674;2022-10-23T03:05:45;18.40;61.90
33105;DHT22;19476;51.448;6.674;2022-10-23T03:08:12;18.40;61.50
33105;DHT22;19476;51.448;6.674;2022-10-23T03:10:40;18.40;61.70
33105;DHT22;19476;51.448;6.674;2022-10-23T03:13:06;18.40;61.70
33105;DHT22;19476;51.448;6.674;2022-10-23T03:15:32;18.40;61.60
33105;DHT22;19476;51.448;6.674;2022-10-23T03:17:58;18.40;61.60
33105;DHT22;19476;51.448;6.674;2022-10-23T03:20:23;18.40;61.60
33105;DHT22;19476;51.448;6.674;2022-10-23T03:22:49;18.40;61.60
33105;DHT22;19476;51.448;6.674;2022-10-23T03:25:15;18.40;61.70
33105;DHT22;19476;51.448;6.674;2022-10-23T03:27:41;18.40;61.70
33105;DHT22;19476;51.448;6.674;2022-10-23T03:30:07;18.40;61.60
33105;DHT22;19476;51.448;6.674;2022-10-23T03:32:34;18.40;61.80
33105;DHT22;19476;51.448;6.674;2022-10-23T03:34:59;18.50;61.80
33105;DHT22;19476;51.448;6.674;2022-10-23T03:37:25;18.40;61.70
33105;DHT22;19476;51.448;6.674;2022-10-23T03:39:51;18.50;61.80
33105;DHT22;19476;51.448;6.674;2022-10-23T03:42:17;18.50;61.70
33105;DHT22;19476;51.448;6.674;2022-10-23T03:44:43;18.50;61.80
33105;DHT22;19476;51.448;6.674;2022-10-23T03:47:10;18.50;61.80
33105;DHT22;19476;51.448;6.674;2022-10-23T03:49:39;18.50;61.70
33105;DHT22;19476;51.448;6.674;2022-10-23T03:52:06;18.50;61.90
33105;DHT22;19476;51.448;6.674;2022-10-23T03:54:32;18.50;61.80
33105;DHT22;19476;51.448;6.674;2022-10-23T03:56:58;18.50;61.80
33105;DHT22;19476;51.448;6.674;2022-10-23T03:59:24;18.50;61.80
33105;DHT22;19476;51.448;6.674;2022-10-23T04:01:50;18.60;61.90
33105;DHT22;19476;51.448;6.674;2022-10-23T04:04:16;18.60;61.90
33105;DHT22;19476;51.448;6.674;2022-10-23T04:06:42;18.60;61.80
33105;DHT22;19476;51.448;6.674;2022-10-23T04:09:08;18.60;61.80
33105;DHT22;19476;51.448;6.674;2022-10-23T04:11:35;18.60;61.80
33105;DHT22;19476;51.448;6.674;2022-10-23T04:14:00;18.60;61.80
33105;DHT22;19476;51.448;6.674;2022-10-23T04:16:26;18.60;61.70
33105;DHT22;19476;51.448;6.674;2022-10-23T04:18:52;18.70;61.70
33105;DHT22;19476;51.448;6.674;2022-10-23T04:21:18;18.60;61.70
33105;DHT22;19476;51.448;6.674;2022-10-23T04:23:44;18.70;61.70
33105;DHT22;19476;51.448;6.674;2022-10-23T04:26:10;18.70;61.70
33105;DHT22;19476;51.448;6.674;2022-10-23T04:28:36;18.60;61.60
33105;DHT22;19476;51.448;6.674;2022-10-23T04:31:02;18.70;61.70
33105;DHT22;19476;51.448;6.674;2022-10-23T04:33:27;18.70;61.70
33105;DHT22;19476;51.448;6.674;2022-10-23T04:35:53;18.60;61.60
33105;DHT22;19476;51.448;6.674;2022-10-23T04:38:19;18.60;61.70
33105;DHT22;19476;51.448;6.674;2022-10-23T04:40:45;18.60;61.70
33105;DHT22;19476;51.448;6.674;2022-10-23T04:43:11;18.60;61.80
33105;DHT22;19476;51.448;6.674;2022-10-23T04:45:36;18.60;61.80
33105;DHT22;19476;51.448;6.674;2022-10-23T04:48:02;18.60;61.80
33105;DHT22;19476;51.448;6.674;2022-10-23T04:50:29;18.60;61.80
33105;DHT22;19476;51.448;6.674;2022-10-23T04:52:55;18.60;61.90
33105;DHT22;19476;51.448;6.674;2022-10-23T04:55:21;18.60;62.00
33105;DHT22;19476;51.448;6.674;2022-10-23T04:57:47;18.60;61.90
33105;DHT22;19476;51.448;6.674;2022-10-23T05:00:14;18.60;61.90
33105;DHT22;19476;51.448;6.674;2022-10-23T05:02:40;18.60;62.00
33105;DHT22;19476;51.448;6.674;2022-10-23T05:05:07;18.60;61.90
33105;DHT22;19476;51.448;6.674;2022-10-23T05:07:34;18.60;62.00
33105;DHT22;19476;51.448;6.674;2022-10-23T05:10:00;18.60;62.10
33105;DHT22;19476;51.448;6.674;2022-10-23T05:12:26;18.60;62.00
33105;DHT22;19476;51.448;6.674;2022-10-23T05:14:52;18.50;61.90
33105;DHT22;19476;51.448;6.674;2022-10-23T05:17:48;18.50;62.00
33105;DHT22;19476;51.448;6.674;2022-10-23T05:20:19;18.60;62.40
33105;DHT22;19476;51.448;6.674;2022-10-23T05:22:47;18.60;62.10
33105;DHT22;19476;51.448;6.674;2022-10-23T05:25:16;18.60;62.10
33105;DHT22;19476;51.448;6.674;2022-10-23T05:27:42;18.60;62.00
33105;DHT22;19476;51.448;6.674;2022-10-23T05:30:08;18.60;62.00
33105;DHT22;19476;51.448;6.674;2022-10-23T05:32:35;18.60;62.00
33105;DHT22;19476;51.448;6.674;2022-10-23T05:35:06;18.60;62.00
33105;DHT22;19476;51.448;6.674;2022-10-23T05:37:33;18.60;62.10
33105;DHT22;19476;51.448;6.674;2022-10-23T05:39:59;18.60;61.90
33105;DHT22;19476;51.448;6.674;2022-10-23T05:42:24;18.60;62.00
33105;DHT22;19476;51.448;6.674;2022-10-23T05:44:50;18.50;61.90
33105;DHT22;19476;51.448;6.674;2022-10-23T05:47:16;18.50;62.00
33105;DHT22;19476;51.448;6.674;2022-10-23T05:49:42;18.60;62.00
33105;DHT22;19476;51.448;6.674;2022-10-23T05:52:10;18.60;62.00
33105;DHT22;19476;51.448;6.674;2022-10-23T05:54:36;18.60;62.30
33105;DHT22;19476;51.448;6.674;2022-10-23T05:57:02;18.60;62.10
33105;DHT22;19476;51.448;6.674;2022-10-23T05:59:28;18.50;62.00
33105;DHT22;19476;51.448;6.674;2022-10-23T06:01:54;18.60;62.10
33105;DHT22;19476;51.448;6.674;2022-10-23T06:04:20;18.60;62.20
33105;DHT22;19476;51.448;6.674;2022-10-23T06:06:46;18.60;62.10
33105;DHT22;19476;51.448;6.674;2022-10-23T06:09:13;18.60;62.10
33105;DHT22;19476;51.448;6.674;2022-10-23T06:11:40;18.60;62.20
33105;DHT22;19476;51.448;6.674;2022-10-23T06:14:06;18.60;62.10
33105;DHT22;19476;51.448;6.674;2022-10-23T06:16:32;18.70;62.10
33105;DHT22;19476;51.448;6.674;2022-10-23T06:18:58;18.70;62.10
33105;DHT22;19476;51.448;6.674;2022-10-23T06:21:25;18.70;62.10
33105;DHT22;19476;51.448;6.674;2022-10-23T06:23:51;18.70;62.10
33105;DHT22;19476;51.448;6.674;2022-10-23T06:26:18;18.70;62.00
33105;DHT22;19476;51.448;6.674;2022-10-23T06:28:44;18.70;62.00
33105;DHT22;19476;51.448;6.674;2022-10-23T06:31:13;18.70;62.00
33105;DHT22;19476;51.448;6.674;2022-10-23T06:33:40;18.70;62.10
33105;DHT22;19476;51.448;6.674;2022-10-23T06:36:06;18.70;62.10
33105;DHT22;19476;51.448;6.674;2022-10-23T06:38:35;18.70;62.10
33105;DHT22;19476;51.448;6.674;2022-10-23T06:41:03;18.70;62.00
33105;DHT22;19476;51.448;6.674;2022-10-23T06:43:29;18.80;62.00
33105;DHT22;19476;51.448;6.674;2022-10-23T06:45:54;18.80;61.90
33105;DHT22;19476;51.448;6.674;2022-10-23T06:48:20;18.80;61.80
33105;DHT22;19476;51.448;6.674;2022-10-23T06:50:46;18.80;61.80
33105;DHT22;19476;51.448;6.674;2022-10-23T06:53:12;18.80;61.80
33105;DHT22;19476;51.448;6.674;2022-10-23T06:55:38;18.90;61.80
33105;DHT22;19476;51.448;6.674;2022-10-23T06:58:05;18.90;61.80
33105;DHT22;19476;51.448;6.674;2022-10-23T07:00:37;18.90;61.90
33105;DHT22;19476;51.448;6.674;2022-10-23T07:03:04;18.90;61.80
33105;DHT22;19476;51.448;6.674;2022-10-23T07:05:31;18.90;61.90
33105;DHT22;19476;51.448;6.674;2022-10-23T07:07:57;19.00;61.90
33105;DHT22;19476;51.448;6.674;2022-10-23T07:10:47;18.90;61.70
33105;DHT22;19476;51.448;6.674;2022-10-23T07:13:13;19.00;62.00
33105;DHT22;19476;51.448;6.674;2022-10-23T07:15:39;19.00;61.70
33105;DHT22;19476;51.448;6.674;2022-10-23T07:18:05;19.00;61.70
33105;DHT22;19476;51.448;6.674;2022-10-23T07:20:31;19.00;61.70
33105;DHT22;19476;51.448;6.674;2022-10-23T07:22:58;19.00;61.70
33105;DHT22;19476;51.448;6.674;2022-10-23T07:25:25;19.00;61.80
33105;DHT22;19476;51.448;6.674;2022-10-23T07:27:51;19.10;61.80
33105;DHT22;19476;51.448;6.674;2022-10-23T07:30:17;19.10;61.70
33105;DHT22;19476;51.448;6.674;2022-10-23T07:32:43;19.10;61.70
33105;DHT22;19476;51.448;6.674;2022-10-23T07:35:10;19.10;61.70
33105;DHT22;19476;51.448;6.674;2022-10-23T07:37:36;19.20;61.70
33105;DHT22;19476;51.448;6.674;2022-10-23T07:40:04;19.20;61.70
33105;DHT22;19476;51.448;6.674;2022-10-23T07:42:30;19.20;61.70
33105;DHT22;19476;51.448;6.674;2022-10-23T07:44:56;19.20;61.60
33105;DHT22;19476;51.448;6.674;2022-10-23T07:47:22;19.30;61.60
33105;DHT22;19476;51.448;6.674;2022-10-23T07:49:49;19.30;61.60
33105;DHT22;19476;51.448;6.674;2022-10-23T07:52:15;19.30;61.60
33105;DHT22;19476;51.448;6.674;2022-10-23T07:54:41;19.40;61.60
33105;DHT22;19476;51.448;6.674;2022-10-23T07:57:09;19.40;61.50
33105;DHT22;19476;51.448;6.674;2022-10-23T07:59:37;19.50;61.50
33105;DHT22;19476;51.448;6.674;2022-10-23T08:02:03;19.50;61.40
33105;DHT22;19476;51.448;6.674;2022-10-23T08:04:29;19.50;61.30
33105;DHT22;19476;51.448;6.674;2022-10-23T08:06:55;19.60;61.30
33105;DHT22;19476;51.448;6.674;2022-10-23T08:09:22;19.60;61.10
33105;DHT22;19476;51.448;6.674;2022-10-23T08:11:49;19.60;61.10
33105;DHT22;19476;51.448;6.674;2022-10-23T08:14:15;19.60;61.00
33105;DHT22;19476;51.448;6.674;2022-10-23T08:16:41;19.70;60.90
33105;DHT22;19476;51.448;6.674;2022-10-23T08:19:07;19.70;60.80
33105;DHT22;19476;51.448;6.674;2022-10-23T08:21:33;19.70;60.80
33105;DHT22;19476;51.448;6.674;2022-10-23T08:23:59;19.80;60.70
33105;DHT22;19476;51.448;6.674;2022-10-23T08:26:26;19.80;60.60
33105;DHT22;19476;51.448;6.674;2022-10-23T08:28:57;19.80;60.70
33105;DHT22;19476;51.448;6.674;2022-10-23T08:31:23;19.90;60.60
33105;DHT22;19476;51.448;6.674;2022-10-23T08:33:49;19.90;60.60
33105;DHT22;19476;51.448;6.674;2022-10-23T08:36:18;20.00;60.50
33105;DHT22;19476;51.448;6.674;2022-10-23T08:38:44;20.00;60.40
33105;DHT22;19476;51.448;6.674;2022-10-23T08:41:38;20.00;60.30
33105;DHT22;19476;51.448;6.674;2022-10-23T08:44:38;20.10;59.80
33105;DHT22;19476;51.448;6.674;2022-10-23T08:47:07;20.20;60.00
33105;DHT22;19476;51.448;6.674;2022-10-23T08:49:57;20.20;59.60
33105;DHT22;19476;51.448;6.674;2022-10-23T08:52:47;20.30;59.60
33105;DHT22;19476;51.448;6.674;2022-10-23T08:55:22;20.30;59.50
33105;DHT22;19476;51.448;6.674;2022-10-23T08:58:02;20.30;59.20
33105;DHT22;19476;51.448;6.674;2022-10-23T09:00:30;20.40;59.20
33105;DHT22;19476;51.448;6.674;2022-10-23T09:02:55;20.40;59.10
33105;DHT22;19476;51.448;6.674;2022-10-23T09:05:30;20.40;58.70
33105;DHT22;19476;51.448;6.674;2022-10-23T09:18:53;20.60;57.80
33105;DHT22;19476;51.448;6.674;2022-10-23T09:21:28;20.60;57.90
33105;DHT22;19476;51.448;6.674;2022-10-23T09:23:54;20.70;57.60
33105;DHT22;19476;51.448;6.674;2022-10-23T09:26:20;20.70;57.50
33105;DHT22;19476;51.448;6.674;2022-10-23T09:28:52;20.80;57.50
33105;DHT22;19476;51.448;6.674;2022-10-23T09:31:21;20.80;57.10
33105;DHT22;19476;51.448;6.674;2022-10-23T09:33:58;20.80;57.20
33105;DHT22;19476;51.448;6.674;2022-10-23T09:36:26;20.80;56.80
33105;DHT22;19476;51.448;6.674;2022-10-23T09:38:56;20.90;57.00
33105;DHT22;19476;51.448;6.674;2022-10-23T09:41:36;20.90;56.90
33105;DHT22;19476;51.448;6.674;2022-10-23T09:44:27;21.00;56.60
33105;DHT22;19476;51.448;6.674;2022-10-23T09:49:32;21.00;56.80
33105;DHT22;19476;51.448;6.674;2022-10-23T09:54:49;21.10;56.20
33105;DHT22;19476;51.448;6.674;2022-10-23T09:57:28;21.20;56.40
33105;DHT22;19476;51.448;6.674;2022-10-23T10:00:17;21.20;56.10
33105;DHT22;19476;51.448;6.674;2022-10-23T10:03:03;21.20;55.90
33105;DHT22;19476;51.448;6.674;2022-10-23T10:05:35;21.30;55.90
33105;DHT22;19476;51.448;6.674;2022-10-23T10:08:29;21.30;55.70
33105;DHT22;19476;51.448;6.674;2022-10-23T10:19:10;21.50;55.60
33105;DHT22;19476;51.448;6.674;2022-10-23T10:21:44;21.50;55.70
33105;DHT22;19476;51.448;6.674;2022-10-23T10:32:42;21.60;54.90
33105;DHT22;19476;51.448;6.674;2022-10-23T10:35:27;21.60;55.20
33105;DHT22;19476;51.448;6.674;2022-10-23T10:44:29;21.70;54.80
33105;DHT22;19476;51.448;6.674;2022-10-23T10:47:31;21.80;54.80
33105;DHT22;19476;51.448;6.674;2022-10-23T10:52:49;21.80;54.70
33105;DHT22;19476;51.448;6.674;2022-10-23T10:58:04;21.90;54.80
33105;DHT22;19476;51.448;6.674;2022-10-23T11:00:35;21.90;54.70
33105;DHT22;19476;51.448;6.674;2022-10-23T11:05:49;22.00;54.60
33105;DHT22;19476;51.448;6.674;2022-10-23T11:08:19;22.00;54.80
33105;DHT22;19476;51.448;6.674;2022-10-23T11:10:53;22.10;54.80
33105;DHT22;19476;51.448;6.674;2022-10-23T11:13:27;22.10;54.50
33105;DHT22;19476;51.448;6.674;2022-10-23T11:15:58;22.10;54.60
33105;DHT22;19476;51.448;6.674;2022-10-23T11:18:28;22.10;54.50
33105;DHT22;19476;51.448;6.674;2022-10-23T11:21:02;22.20;54.40
33105;DHT22;19476;51.448;6.674;2022-10-23T11:32:06;22.30;53.70
33105;DHT22;19476;51.448;6.674;2022-10-23T11:37:04;22.30;53.80
33105;DHT22;19476;51.448;6.674;2022-10-23T11:39:33;22.40;53.20
33105;DHT22;19476;51.448;6.674;2022-10-23T11:52:34;22.40;52.00
33105;DHT22;19476;51.448;6.674;2022-10-23T11:55:19;22.40;52.10
33105;DHT22;19476;51.448;6.674;2022-10-23T11:58:17;22.40;52.00
33105;DHT22;19476;51.448;6.674;2022-10-23T12:01:01;22.50;52.20
33105;DHT22;19476;51.448;6.674;2022-10-23T12:03:37;22.50;52.00
33105;DHT22;19476;51.448;6.674;2022-10-23T12:06:04;22.50;52.30
33105;DHT22;19476;51.448;6.674;2022-10-23T12:08:34;22.50;52.50
33105;DHT22;19476;51.448;6.674;2022-10-23T12:11:00;22.50;52.70
33105;DHT22;19476;51.448;6.674;2022-10-23T12:16:05;22.70;51.80
33105;DHT22;19476;51.448;6.674;2022-10-23T12:18:53;22.70;52.20
33105;DHT22;19476;51.448;6.674;2022-10-23T12:21:24;22.80;51.50
33105;DHT22;19476;51.448;6.674;2022-10-23T12:24:08;22.90;51.60
33105;DHT22;19476;51.448;6.674;2022-10-23T12:29:47;23.10;51.10
33105;DHT22;19476;51.448;6.674;2022-10-23T12:38:27;23.40;50.00
33105;DHT22;19476;51.448;6.674;2022-10-23T12:41:03;23.40;50.10
33105;DHT22;19476;51.448;6.674;2022-10-23T12:43:33;23.50;49.90
33105;DHT22;19476;51.448;6.674;2022-10-23T12:46:39;23.50;50.00
33105;DHT22;19476;51.448;6.674;2022-10-23T12:49:17;23.50;49.90
33105;DHT22;19476;51.448;6.674;2022-10-23T12:51:52;23.50;49.80
33105;DHT22;19476;51.448;6.674;2022-10-23T12:54:19;23.60;50.10
33105;DHT22;19476;51.448;6.674;2022-10-23T12:56:46;23.50;49.90
33105;DHT22;19476;51.448;6.674;2022-10-23T12:59:18;23.60;50.00
33105;DHT22;19476;51.448;6.674;2022-10-23T13:01:45;23.60;49.50
33105;DHT22;19476;51.448;6.674;2022-10-23T13:04:29;23.60;50.30
33105;DHT22;19476;51.448;6.674;2022-10-23T13:06:58;23.60;50.30
33105;DHT22;19476;51.448;6.674;2022-10-23T13:11:54;23.60;49.70
33105;DHT22;19476;51.448;6.674;2022-10-23T13:14:56;23.60;50.00
33105;DHT22;19476;51.448;6.674;2022-10-23T13:22:44;23.60;48.80
33105;DHT22;19476;51.448;6.674;2022-10-23T13:25:24;23.60;49.60
33105;DHT22;19476;51.448;6.674;2022-10-23T13:28:00;23.60;49.60
33105;DHT22;19476;51.448;6.674;2022-10-23T13:30:29;23.50;49.80
33105;DHT22;19476;51.448;6.674;2022-10-23T13:32:56;23.50;49.70
33105;DHT22;19476;51.448;6.674;2022-10-23T13:35:23;23.50;49.90
33105;DHT22;19476;51.448;6.674;2022-10-23T13:37:49;23.40;49.90
33105;DHT22;19476;51.448;6.674;2022-10-23T13:40:24;23.40;49.80
33105;DHT22;19476;51.448;6.674;2022-10-23T13:42:53;23.40;50.20
33105;DHT22;19476;51.448;6.674;2022-10-23T13:45:21;23.30;50.30
33105;DHT22;19476;51.448;6.674;2022-10-23T13:47:47;23.30;50.50
33105;DHT22;19476;51.448;6.674;2022-10-23T13:50:14;23.30;50.50
33105;DHT22;19476;51.448;6.674;2022-10-23T13:52:40;23.30;51.10
33105;DHT22;19476;51.448;6.674;2022-10-23T13:55:24;23.30;50.60
33105;DHT22;19476;51.448;6.674;2022-10-23T13:57:51;23.30;50.60
33105;DHT22;19476;51.448;6.674;2022-10-23T14:00:18;23.30;50.70
33105;DHT22;19476;51.448;6.674;2022-10-23T14:02:44;23.20;50.60
33105;DHT22;19476;51.448;6.674;2022-10-23T14:05:10;23.20;50.80
33105;DHT22;19476;51.448;6.674;2022-10-23T14:07:36;23.20;50.90
33105;DHT22;19476;51.448;6.674;2022-10-23T14:10:02;23.20;50.90
33105;DHT22;19476;51.448;6.674;2022-10-23T14:12:28;23.20;51.00
33105;DHT22;19476;51.448;6.674;2022-10-23T14:14:54;23.20;51.00
33105;DHT22;19476;51.448;6.674;2022-10-23T14:17:20;23.10;51.00
33105;DHT22;19476;51.448;6.674;2022-10-23T14:19:46;23.10;51.00
33105;DHT22;19476;51.448;6.674;2022-10-23T14:22:12;23.10;51.00
33105;DHT22;19476;51.448;6.674;2022-10-23T14:24:38;23.10;51.20
33105;DHT22;19476;51.448;6.674;2022-10-23T14:27:04;23.10;51.20
33105;DHT22;19476;51.448;6.674;2022-10-23T14:29:30;23.10;51.30
33105;DHT22;19476;51.448;6.674;2022-10-23T14:31:56;23.10;51.40
33105;DHT22;19476;51.448;6.674;2022-10-23T14:34:22;23.10;51.20
33105;DHT22;19476;51.448;6.674;2022-10-23T14:36:47;23.10;51.20
33105;DHT22;19476;51.448;6.674;2022-10-23T14:39:13;23.00;51.30
33105;DHT22;19476;51.448;6.674;2022-10-23T14:41:39;23.00;51.30
33105;DHT22;19476;51.448;6.674;2022-10-23T14:44:06;23.00;51.40
33105;DHT22;19476;51.448;6.674;2022-10-23T14:46:32;23.00;51.50
33105;DHT22;19476;51.448;6.674;2022-10-23T14:48:59;23.00;51.50
33105;DHT22;19476;51.448;6.674;2022-10-23T14:51:27;22.90;51.50
33105;DHT22;19476;51.448;6.674;2022-10-23T14:54:02;23.00;51.70
33105;DHT22;19476;51.448;6.674;2022-10-23T14:56:30;22.90;52.00
33105;DHT22;19476;51.448;6.674;2022-10-23T14:58:57;22.90;51.90
33105;DHT22;19476;51.448;6.674;2022-10-23T15:01:28;22.90;51.90
33105;DHT22;19476;51.448;6.674;2022-10-23T15:03:54;22.90;52.00
33105;DHT22;19476;51.448;6.674;2022-10-23T15:06:21;22.90;51.90
33105;DHT22;19476;51.448;6.674;2022-10-23T15:08:53;22.90;52.00
33105;DHT22;19476;51.448;6.674;2022-10-23T15:11:21;22.90;52.10
33105;DHT22;19476;51.448;6.674;2022-10-23T15:13:47;22.80;52.20
33105;DHT22;19476;51.448;6.674;2022-10-23T15:16:13;22.80;52.10
33105;DHT22;19476;51.448;6.674;2022-10-23T15:18:39;22.80;52.20
33105;DHT22;19476;51.448;6.674;2022-10-23T15:21:06;22.80;52.20
33105;DHT22;19476;51.448;6.674;2022-10-23T15:23:37;22.80;52.20
33105;DHT22;19476;51.448;6.674;2022-10-23T15:26:07;22.80;52.50
33105;DHT22;19476;51.448;6.674;2022-10-23T15:28:33;22.70;52.50
33105;DHT22;19476;51.448;6.674;2022-10-23T15:30:59;22.70;52.70
33105;DHT22;19476;51.448;6.674;2022-10-23T15:33:25;22.70;52.70
33105;DHT22;19476;51.448;6.674;2022-10-23T15:35:51;22.70;53.10
33105;DHT22;19476;51.448;6.674;2022-10-23T15:38:17;22.70;53.30
33105;DHT22;19476;51.448;6.674;2022-10-23T15:40:43;22.60;53.30
33105;DHT22;19476;51.448;6.674;2022-10-23T15:43:11;22.60;53.50
33105;DHT22;19476;51.448;6.674;2022-10-23T15:45:38;22.60;53.80
33105;DHT22;19476;51.448;6.674;2022-10-23T15:48:04;22.60;53.90
33105;DHT22;19476;51.448;6.674;2022-10-23T15:50:30;22.50;54.10
33105;DHT22;19476;51.448;6.674;2022-10-23T15:52:56;22.50;54.40
33105;DHT22;19476;51.448;6.674;2022-10-23T15:55:22;22.40;54.70
33105;DHT22;19476;51.448;6.674;2022-10-23T15:57:48;22.40;54.90
33105;DHT22;19476;51.448;6.674;2022-10-23T16:00:14;22.40;55.00
33105;DHT22;19476;51.448;6.674;2022-10-23T16:02:41;22.40;55.50
33105;DHT22;19476;51.448;6.674;2022-10-23T16:05:08;22.30;56.00
33105;DHT22;19476;51.448;6.674;2022-10-23T16:07:34;22.20;56.30
33105;DHT22;19476;51.448;6.674;2022-10-23T16:09:59;22.20;56.60
33105;DHT22;19476;51.448;6.674;2022-10-23T16:12:26;22.10;56.80
33105;DHT22;19476;51.448;6.674;2022-10-23T16:14:52;22.10;57.30
33105;DHT22;19476;51.448;6.674;2022-10-23T16:17:18;22.10;57.50
33105;DHT22;19476;51.448;6.674;2022-10-23T16:19:44;22.00;57.80
33105;DHT22;19476;51.448;6.674;2022-10-23T16:22:11;21.90;58.10
33105;DHT22;19476;51.448;6.674;2022-10-23T16:24:37;21.90;58.30
33105;DHT22;19476;51.448;6.674;2022-10-23T16:27:03;21.80;58.50
33105;DHT22;19476;51.448;6.674;2022-10-23T16:29:28;21.80;58.60
33105;DHT22;19476;51.448;6.674;2022-10-23T16:31:55;21.80;58.70
33105;DHT22;19476;51.448;6.674;2022-10-23T16:34:21;21.70;58.80
33105;DHT22;19476;51.448;6.674;2022-10-23T16:36:48;21.70;59.00
33105;DHT22;19476;51.448;6.674;2022-10-23T16:39:16;21.60;59.00
33105;DHT22;19476;51.448;6.674;2022-10-23T16:41:42;21.60;59.30
33105;DHT22;19476;51.448;6.674;2022-10-23T16:44:08;21.60;59.20
33105;DHT22;19476;51.448;6.674;2022-10-23T16:46:34;21.50;59.30
33105;DHT22;19476;51.448;6.674;2022-10-23T16:49:01;21.50;59.50
33105;DHT22;19476;51.448;6.674;2022-10-23T16:51:30;21.50;59.80
33105;DHT22;19476;51.448;6.674;2022-10-23T16:53:57;21.50;59.90
33105;DHT22;19476;51.448;6.674;2022-10-23T16:56:24;21.40;60.20
33105;DHT22;19476;51.448;6.674;2022-10-23T16:58:53;21.40;60.70
33105;DHT22;19476;51.448;6.674;2022-10-23T17:01:21;21.30;60.60
33105;DHT22;19476;51.448;6.674;2022-10-23T17:03:49;21.30;60.90
33105;DHT22;19476;51.448;6.674;2022-10-23T17:06:19;21.30;60.90
33105;DHT22;19476;51.448;6.674;2022-10-23T17:08:45;21.20;61.70
33105;DHT22;19476;51.448;6.674;2022-10-23T17:11:14;21.20;61.20
33105;DHT22;19476;51.448;6.674;2022-10-23T17:13:46;21.20;61.40
33105;DHT22;19476;51.448;6.674;2022-10-23T17:16:34;21.20;61.80
33105;DHT22;19476;51.448;6.674;2022-10-23T17:19:00;21.10;62.10
33105;DHT22;19476;51.448;6.674;2022-10-23T17:21:31;21.10;61.70
33105;DHT22;19476;51.448;6.674;2022-10-23T17:23:58;21.10;62.00
33105;DHT22;19476;51.448;6.674;2022-10-23T17:26:24;21.10;61.70
33105;DHT22;19476;51.448;6.674;2022-10-23T17:28:50;21.10;61.80
33105;DHT22;19476;51.448;6.674;2022-10-23T17:31:22;21.10;61.80
33105;DHT22;19476;51.448;6.674;2022-10-23T17:33:51;21.00;62.20
33105;DHT22;19476;51.448;6.674;2022-10-23T17:36:18;21.00;62.00
33105;DHT22;19476;51.448;6.674;2022-10-23T17:38:44;21.00;61.90
33105;DHT22;19476;51.448;6.674;2022-10-23T17:41:12;21.00;61.90
33105;DHT22;19476;51.448;6.674;2022-10-23T17:43:39;21.00;62.20
33105;DHT22;19476;51.448;6.674;2022-10-23T17:46:07;21.00;62.10
33105;DHT22;19476;51.448;6.674;2022-10-23T17:48:33;21.00;62.20
33105;DHT22;19476;51.448;6.674;2022-10-23T17:51:07;21.00;62.20